Terminal Aerodrome Forecast
Issued by NWS Wilmington, OH

Current Version | Previous Version | Text Only | Print | Product List | Glossary Off
Versions: 1 2 3 4 5 6 7 8 9 10 11 12 13 14 15 16 17 18 19 20 21 22

000
FTUS41 KILN 250900 AAA
TAFDAY
TAF AMD
KDAY 250915Z 2509/2606 14009KT 5SM -SHRA BR OVC060
      TEMPO 2509/2512 3SM -TSRA BR OVC025CB
     FM251300 23018G28KT P6SM OVC035
     FM251800 23016G26KT P6SM SCT035 BKN150
     FM260000 17008KT P6SM BKN200=

USA.gov is the U.S. government's official web portal to all federal, state and local government web resources and services.